Time;durP1;ratioP1;P1;durP2;ratioP2;P2;SDS_P1;SDS_P2;PMS_P1;PMS_P2;Temp;Humidity;BMP_temperature;BMP_pressure;BME280_temperature;BME280_humidity;BME280_pressure;Samples;Min_cycle;Max_cycle;Signal;HPM_P1;HPM_P2
2022/07/20 00:00:38;;;;;;;0.90;0.63;;;25.70;54.30;;;;;;5091218;28;20082;-79
2022/07/20 00:03:10;;;;;;;1.17;0.77;;;25.70;54.30;;;;;;5091453;28;20426;-80
2022/07/20 00:05:36;;;;;;;2.10;0.90;;;25.70;54.30;;;;;;5091238;28;20047;-79
2022/07/20 00:08:02;;;;;;;0.80;0.50;;;25.70;54.20;;;;;;5092388;28;20036;-79
2022/07/20 00:13:15;;;;;;;1.77;0.65;;;25.70;54.20;;;;;;5091131;28;20079;-79
2022/07/20 00:15:42;;;;;;;2.35;0.50;;;25.60;54.20;;;;;;5091286;28;20048;-79
2022/07/20 00:18:08;;;;;;;1.10;0.47;;;25.70;54.20;;;;;;5091257;28;20123;-80
2022/07/20 00:20:35;;;;;;;1.20;0.60;;;25.60;54.10;;;;;;5090841;28;20484;-79
2022/07/20 00:23:01;;;;;;;3.08;0.60;;;25.60;54.10;;;;;;5090798;28;20058;-79
2022/07/20 00:25:30;;;;;;;0.95;0.50;;;25.60;54.10;;;;;;5091153;28;20116;-79
2022/07/20 00:27:59;;;;;;;1.15;0.70;;;25.60;54.10;;;;;;5090900;28;20043;-79
2022/07/20 00:30:25;;;;;;;1.52;0.60;;;25.60;54.10;;;;;;5092114;28;20043;-79
2022/07/20 00:32:51;;;;;;;1.30;0.70;;;25.60;54.10;;;;;;5091115;28;20040;-79
2022/07/20 00:35:17;;;;;;;1.80;0.80;;;25.60;54.10;;;;;;5090830;28;20063;-80
2022/07/20 00:37:43;;;;;;;0.80;0.50;;;25.60;54.00;;;;;;5090692;28;20501;-79
2022/07/20 00:40:12;;;;;;;2.30;0.75;;;25.60;54.00;;;;;;5090413;28;20048;-78
2022/07/20 00:42:38;;;;;;;1.23;0.68;;;25.60;54.00;;;;;;5092005;28;20043;-79
2022/07/20 00:45:06;;;;;;;1.27;0.75;;;25.60;54.00;;;;;;5091989;28;20036;-79
2022/07/20 00:47:32;;;;;;;1.67;0.70;;;25.60;54.00;;;;;;5090751;28;20047;-79
2022/07/20 00:49:57;;;;;;;1.38;0.63;;;25.60;54.00;;;;;;5090622;28;20052;-79
2022/07/20 00:52:23;;;;;;;1.35;0.55;;;25.60;53.90;;;;;;5090472;28;20059;-79
2022/07/20 00:54:49;;;;;;;1.65;0.90;;;25.60;53.90;;;;;;5090843;28;20040;-79
2022/07/20 00:57:16;;;;;;;1.08;0.68;;;25.60;53.90;;;;;;5090809;28;20044;-78
2022/07/20 00:59:48;;;;;;;2.58;0.70;;;25.60;53.90;;;;;;5090565;28;20044;-79
2022/07/20 01:02:13;;;;;;;1.45;0.55;;;25.60;53.90;;;;;;5091893;28;20047;-79
2022/07/20 01:04:39;;;;;;;1.15;0.70;;;25.50;53.80;;;;;;5091804;28;20380;-79
2022/07/20 01:07:06;;;;;;;2.05;0.80;;;25.60;53.80;;;;;;5091707;28;20047;-78
2022/07/20 01:09:32;;;;;;;1.73;0.75;;;25.50;53.80;;;;;;5091623;28;20040;-79
2022/07/20 01:11:58;;;;;;;1.88;0.70;;;25.50;53.70;;;;;;5090522;28;20040;-79
2022/07/20 01:14:24;;;;;;;1.38;0.70;;;25.50;53.70;;;;;;5090351;28;20039;-79
2022/07/20 01:16:49;;;;;;;1.20;0.93;;;25.50;53.70;;;;;;5090369;28;20047;-79
2022/07/20 01:19:15;;;;;;;1.25;0.80;;;25.50;53.70;;;;;;5091893;28;20028;-80
2022/07/20 01:21:40;;;;;;;3.08;0.70;;;25.50;53.70;;;;;;5110688;28;20039;-79
2022/07/20 01:24:10;;;;;;;1.45;0.80;;;25.50;53.70;;;;;;5110630;28;20169;-78
2022/07/20 01:26:37;;;;;;;1.00;0.80;;;25.50;53.60;;;;;;5110606;28;20065;-79
2022/07/20 01:29:03;;;;;;;1.20;0.73;;;25.50;54.30;;;;;;5110661;28;20115;-78
2022/07/20 01:31:29;;;;;;;1.77;0.70;;;25.50;53.50;;;;;;5110545;28;20169;-79
2022/07/20 01:33:55;;;;;;;1.08;0.60;;;25.50;53.50;;;;;;5112003;28;20118;-79
2022/07/20 01:36:20;;;;;;;1.40;0.70;;;25.50;54.10;;;;;;5111842;28;20028;-79
2022/07/20 01:38:46;;;;;;;1.77;1.63;;;25.50;53.30;;;;;;5111484;28;20426;-79
2022/07/20 01:41:12;;;;;;;1.75;1.13;;;25.50;53.30;;;;;;5110424;28;20040;-79
2022/07/20 01:43:37;;;;;;;1.48;1.00;;;25.50;53.20;;;;;;5110515;28;20043;-78
2022/07/20 01:46:03;;;;;;;1.67;0.88;;;25.50;53.20;;;;;;5110891;28;20085;-78
2022/07/20 01:48:29;;;;;;;1.95;0.95;;;25.50;53.10;;;;;;5115519;28;20031;-79
2022/07/20 01:50:54;;;;;;;1.50;1.08;;;25.50;53.10;;;;;;5114090;28;20395;-78
2022/07/20 01:53:20;;;;;;;1.25;0.70;;;25.50;53.00;;;;;;5114045;28;20035;-79
2022/07/20 01:55:46;;;;;;;1.30;0.88;;;25.50;52.90;;;;;;5114109;28;20047;-79
2022/07/20 01:58:11;;;;;;;2.63;0.77;;;25.50;52.90;;;;;;5114017;28;20047;-79
2022/07/20 02:00:37;;;;;;;1.25;0.90;;;25.50;52.90;;;;;;5113952;28;20047;-79
2022/07/20 02:03:03;;;;;;;2.55;0.90;;;25.50;52.80;;;;;;5114048;28;20051;-79
2022/07/20 02:05:28;;;;;;;2.05;1.17;;;25.40;52.70;;;;;;5113885;28;20453;-79
2022/07/20 02:07:54;;;;;;;1.80;0.98;;;25.40;52.70;;;;;;5113787;28;20039;-79
2022/07/20 02:10:20;;;;;;;1.73;1.08;;;25.40;52.70;;;;;;5113736;28;20055;-79
2022/07/20 02:12:45;;;;;;;1.63;0.88;;;25.40;52.70;;;;;;5113706;28;20130;-79
2022/07/20 02:16:14;;;;;;;3.20;1.20;;;25.40;52.70;;;;;;5114972;28;20040;-79
2022/07/20 02:17:57;;;;;;;1.65;0.80;;;25.40;52.70;;;;;;5113680;28;20043;-79
2022/07/20 02:20:23;;;;;;;1.60;1.00;;;25.40;52.70;;;;;;5104728;28;20036;-79
2022/07/20 02:22:49;;;;;;;2.05;1.00;;;25.40;52.70;;;;;;5094274;28;20043;-79
2022/07/20 02:25:14;;;;;;;1.67;1.02;;;25.40;53.50;;;;;;5093398;28;20039;-79
2022/07/20 02:27:40;;;;;;;3.17;0.80;;;25.30;52.70;;;;;;5092972;28;20400;-78
2022/07/20 02:30:06;;;;;;;1.73;1.00;;;25.30;52.70;;;;;;5093347;28;20123;-79
2022/07/20 02:32:31;;;;;;;1.40;0.80;;;25.30;52.70;;;;;;5094274;28;20621;-79
2022/07/20 02:35:00;;;;;;;1.05;0.88;;;25.30;52.70;;;;;;5076153;28;20123;-79
2022/07/20 02:37:28;;;;;;;3.80;1.15;;;25.40;52.80;;;;;;5092765;28;20040;-79
2022/07/20 02:39:54;;;;;;;1.13;0.70;;;25.30;52.80;;;;;;5092502;28;20044;-78
2022/07/20 02:42:19;;;;;;;2.88;1.00;;;25.30;52.80;;;;;;5094238;28;20093;-78
2022/07/20 02:44:45;;;;;;;1.63;0.95;;;25.30;52.70;;;;;;5092647;28;20036;-79
2022/07/20 02:47:11;;;;;;;1.20;0.73;;;25.30;52.80;;;;;;5093270;28;20291;-78
2022/07/20 02:49:36;;;;;;;1.60;1.08;;;25.30;52.80;;;;;;5093864;28;20487;-78
2022/07/20 02:52:02;;;;;;;1.52;1.10;;;25.20;52.70;;;;;;5093800;28;20059;-78
2022/07/20 02:54:28;;;;;;;2.40;0.90;;;25.20;52.70;;;;;;5092745;28;20072;-78
2022/07/20 02:56:53;;;;;;;1.42;0.80;;;25.20;52.70;;;;;;5092786;28;20494;-78
2022/07/20 02:59:19;;;;;;;1.90;1.05;;;25.20;52.70;;;;;;5092317;28;20047;-78
2022/07/20 03:01:44;;;;;;;2.22;1.20;;;25.20;52.70;;;;;;5092395;28;20076;-78
2022/07/20 03:04:11;;;;;;;2.17;1.10;;;25.20;52.70;;;;;;5092250;28;20036;-79
2022/07/20 03:06:36;;;;;;;1.40;0.98;;;25.20;52.70;;;;;;5092585;28;20075;-79
2022/07/20 03:09:02;;;;;;;1.85;1.17;;;25.20;52.80;;;;;;5092373;28;20036;-78
2022/07/20 03:11:28;;;;;;;1.52;1.17;;;25.20;52.70;;;;;;5092230;28;20040;-78
2022/07/20 03:13:54;;;;;;;1.38;0.80;;;25.20;52.70;;;;;;5092109;28;20048;-79
2022/07/20 03:16:19;;;;;;;2.22;1.23;;;25.20;52.70;;;;;;5093383;28;20036;-79
2022/07/20 03:18:45;;;;;;;2.00;0.95;;;25.20;52.70;;;;;;5092189;28;20125;-79
2022/07/20 03:21:11;;;;;;;1.67;1.15;;;25.20;52.70;;;;;;5109891;28;20058;-81
2022/07/20 03:23:36;;;;;;;1.48;0.73;;;25.20;52.70;;;;;;5112267;28;20565;-79
2022/07/20 03:26:02;;;;;;;1.77;0.80;;;25.20;52.70;;;;;;5113538;28;20040;-78
2022/07/20 03:28:27;;;;;;;1.48;1.08;;;25.20;52.70;;;;;;5112303;28;20058;-79
2022/07/20 03:30:53;;;;;;;1.35;0.77;;;25.20;52.70;;;;;;5113416;28;20165;-79
2022/07/20 03:33:19;;;;;;;1.88;1.00;;;25.10;52.60;;;;;;5112450;28;20044;-79
2022/07/20 03:35:44;;;;;;;2.38;1.30;;;25.10;52.60;;;;;;5112038;28;20395;-79
2022/07/20 03:38:10;;;;;;;1.85;1.00;;;25.10;52.60;;;;;;5113175;28;20076;-79
2022/07/20 03:40:36;;;;;;;1.67;1.13;;;25.10;52.60;;;;;;5113028;28;20446;-79
2022/07/20 03:43:02;;;;;;;1.65;0.95;;;25.10;52.60;;;;;;5112251;28;20447;-79
2022/07/20 03:45:27;;;;;;;1.48;1.00;;;25.10;52.60;;;;;;5112210;28;20127;-79
2022/07/20 03:47:53;;;;;;;1.25;0.82;;;25.10;52.50;;;;;;5111924;28;20444;-78
2022/07/20 03:50:18;;;;;;;1.55;1.30;;;25.10;52.60;;;;;;5113085;28;20071;-78
2022/07/20 03:52:44;;;;;;;1.58;1.13;;;25.10;52.60;;;;;;5111816;28;20051;-79
2022/07/20 03:55:10;;;;;;;2.03;1.00;;;25.10;52.60;;;;;;5111539;28;20102;-79
2022/07/20 03:57:35;;;;;;;1.65;0.93;;;25.00;52.50;;;;;;5112144;28;20043;-79
2022/07/20 04:00:01;;;;;;;2.40;0.90;;;25.10;52.60;;;;;;5111688;28;20044;-79
2022/07/20 04:02:27;;;;;;;1.67;1.00;;;25.10;52.50;;;;;;5111567;28;20066;-79
2022/07/20 04:04:52;;;;;;;1.20;0.75;;;25.00;52.50;;;;;;5111614;28;20039;-79
2022/07/20 04:07:18;;;;;;;2.80;1.55;;;25.00;52.50;;;;;;5111811;28;20039;-79
2022/07/20 04:09:43;;;;;;;1.45;0.88;;;25.00;52.60;;;;;;5111032;28;20093;-78
2022/07/20 04:12:11;;;;;;;1.90;1.00;;;25.00;52.60;;;;;;5112892;28;20063;-78
2022/07/20 04:14:36;;;;;;;1.45;1.10;;;25.00;52.60;;;;;;5111425;28;20514;-79
2022/07/20 04:17:03;;;;;;;1.48;0.80;;;25.00;52.60;;;;;;5111607;28;20036;-79
2022/07/20 04:19:29;;;;;;;3.17;1.00;;;25.00;52.60;;;;;;5109124;28;20047;-79
2022/07/20 04:21:58;;;;;;;1.20;1.00;;;25.00;52.60;;;;;;5091165;28;20058;-79
2022/07/20 04:24:24;;;;;;;1.42;1.25;;;25.00;52.70;;;;;;5090973;28;20036;-79
2022/07/20 04:26:50;;;;;;;1.65;1.10;;;25.00;52.60;;;;;;5091057;28;20039;-78
2022/07/20 04:29:15;;;;;;;1.73;1.10;;;25.00;52.60;;;;;;5091175;28;20484;-79
2022/07/20 04:31:41;;;;;;;3.03;1.27;;;24.90;52.60;;;;;;5090977;28;20407;-79
2022/07/20 04:34:07;;;;;;;1.40;0.95;;;24.90;52.70;;;;;;5091106;28;20047;-80
2022/07/20 04:36:32;;;;;;;2.10;1.00;;;24.90;52.70;;;;;;5090718;28;20449;-79
2022/07/20 04:38:58;;;;;;;1.73;0.95;;;24.90;52.60;;;;;;5090616;28;20059;-78
2022/07/20 04:41:24;;;;;;;1.65;1.02;;;24.90;52.60;;;;;;5091812;28;20546;-79
2022/07/20 04:43:49;;;;;;;2.30;0.95;;;24.90;52.60;;;;;;5090896;28;20121;-79
2022/07/20 04:46:15;;;;;;;1.35;1.15;;;24.90;52.70;;;;;;5091295;28;20151;-79
2022/07/20 04:48:41;;;;;;;1.00;0.85;;;24.90;52.70;;;;;;5091900;28;20036;-72
2022/07/20 04:51:06;;;;;;;1.70;1.60;;;24.90;52.70;;;;;;5090652;28;20040;-79
2022/07/20 04:53:32;;;;;;;1.63;1.02;;;24.90;52.80;;;;;;5090587;28;20063;-79
2022/07/20 04:55:57;;;;;;;2.13;1.10;;;24.90;52.90;;;;;;5090834;28;20040;-79
2022/07/20 04:58:23;;;;;;;1.92;0.98;;;24.90;52.90;;;;;;5091746;28;20032;-79
2022/07/20 05:00:49;;;;;;;1.77;1.20;;;24.90;52.90;;;;;;5090461;28;20452;-79
2022/07/20 05:03:14;;;;;;;1.77;1.10;;;24.90;52.90;;;;;;5090345;28;20127;-79
2022/07/20 05:05:40;;;;;;;2.47;1.13;;;24.90;52.90;;;;;;5090585;28;20040;-79
2022/07/20 05:08:05;;;;;;;2.15;0.70;;;24.90;52.90;;;;;;5090506;28;20074;-79
2022/07/20 05:10:31;;;;;;;1.42;1.10;;;24.90;52.90;;;;;;5090514;28;20086;-78
2022/07/20 05:12:57;;;;;;;1.52;1.10;;;24.90;52.90;;;;;;5090648;28;20043;-79
2022/07/20 05:15:23;;;;;;;1.50;1.17;;;24.90;52.90;;;;;;5090432;28;20044;-80
2022/07/20 05:17:50;;;;;;;1.80;0.93;;;24.90;53.00;;;;;;5090377;28;20051;-79
2022/07/20 05:20:16;;;;;;;2.55;1.60;;;24.90;53.00;;;;;;5099268;28;20051;-79
2022/07/20 05:22:42;;;;;;;1.98;1.00;;;24.90;53.00;;;;;;5115371;28;20505;-80
2022/07/20 05:25:10;;;;;;;1.80;1.13;;;24.90;53.00;;;;;;5115938;28;20035;-79
2022/07/20 05:27:39;;;;;;;1.73;1.13;;;24.80;52.90;;;;;;5098221;28;20036;-79
2022/07/20 05:30:05;;;;;;;2.30;1.42;;;24.80;52.90;;;;;;5114504;28;20051;-79
2022/07/20 05:32:31;;;;;;;2.28;1.23;;;24.80;52.90;;;;;;5114757;28;20074;-80
2022/07/20 05:34:57;;;;;;;1.50;1.35;;;24.80;53.00;;;;;;5114727;28;20485;-79
2022/07/20 05:37:22;;;;;;;2.33;1.00;;;24.90;53.00;;;;;;5114471;28;20494;-79
2022/07/20 05:39:48;;;;;;;4.28;1.33;;;24.80;52.90;;;;;;5114007;28;20088;-79
2022/07/20 05:42:14;;;;;;;1.88;1.25;;;24.90;52.90;;;;;;5115591;28;20044;-79
2022/07/20 05:44:39;;;;;;;1.75;1.05;;;24.80;52.80;;;;;;5114569;28;20039;-79
2022/07/20 05:47:06;;;;;;;1.92;1.13;;;24.80;52.80;;;;;;5114280;28;20387;-79
2022/07/20 05:49:33;;;;;;;2.47;1.25;;;24.80;52.80;;;;;;5114174;28;20058;-79
2022/07/20 05:51:59;;;;;;;1.45;1.35;;;24.80;52.80;;;;;;5114152;28;20086;-79
2022/07/20 05:54:25;;;;;;;1.33;1.20;;;24.80;52.70;;;;;;5114446;28;20055;-79
2022/07/20 05:56:50;;;;;;;1.63;1.13;;;24.80;52.70;;;;;;5115371;28;20040;-78
2022/07/20 05:59:16;;;;;;;1.02;0.93;;;24.80;52.70;;;;;;5113872;28;20042;-79
2022/07/20 06:01:44;;;;;;;1.60;1.10;;;24.80;52.70;;;;;;5113983;28;20047;-79
2022/07/20 06:04:11;;;;;;;2.20;1.35;;;24.80;52.70;;;;;;5113877;28;20043;-79
2022/07/20 06:06:37;;;;;;;2.80;1.20;;;24.80;52.70;;;;;;5114158;28;20100;-79
2022/07/20 06:09:04;;;;;;;1.88;1.20;;;24.80;52.60;;;;;;5113822;28;20035;-79
2022/07/20 06:11:30;;;;;;;1.70;0.90;;;24.80;52.60;;;;;;5113663;28;20513;-78
2022/07/20 06:13:56;;;;;;;2.55;1.20;;;24.80;52.60;;;;;;5113712;28;20491;-78
2022/07/20 06:16:21;;;;;;;1.30;1.13;;;24.90;52.60;;;;;;5113638;28;20046;-79
2022/07/20 06:18:47;;;;;;;1.45;1.10;;;24.80;52.60;;;;;;5113863;28;20039;-79
2022/07/20 06:21:14;;;;;;;1.35;1.05;;;24.80;52.50;;;;;;5113477;28;20364;-79
2022/07/20 06:23:41;;;;;;;1.48;1.05;;;24.80;52.60;;;;;;5113561;28;20127;-79
2022/07/20 06:26:07;;;;;;;1.98;1.10;;;24.80;52.50;;;;;;5113440;28;20126;-79
2022/07/20 06:28:32;;;;;;;1.98;1.27;;;24.90;52.60;;;;;;5113642;28;20128;-79
2022/07/20 06:30:58;;;;;;;1.90;1.10;;;24.90;52.50;;;;;;5113360;28;20665;-79
2022/07/20 06:33:24;;;;;;;3.38;1.02;;;24.80;52.40;;;;;;5113030;28;20044;-79
2022/07/20 06:35:49;;;;;;;1.50;1.13;;;24.90;52.50;;;;;;5113252;28;20120;-79
2022/07/20 06:38:15;;;;;;;1.48;0.98;;;24.80;52.40;;;;;;5114457;28;20032;-77
2022/07/20 06:40:40;;;;;;;1.45;1.15;;;24.80;52.40;;;;;;5113113;28;20469;-79
2022/07/20 06:43:06;;;;;;;1.00;0.80;;;24.90;52.50;;;;;;5113077;28;20047;-79
2022/07/20 06:45:32;;;;;;;2.63;0.90;;;24.90;52.50;;;;;;5112596;28;20092;-79
2022/07/20 06:47:57;;;;;;;1.38;0.93;;;24.80;52.40;;;;;;5114064;28;20406;-79
2022/07/20 06:50:23;;;;;;;1.50;1.40;;;24.90;52.50;;;;;;5111636;28;20043;-79
2022/07/20 06:52:49;;;;;;;1.67;1.15;;;24.90;52.50;;;;;;5111269;28;20040;-77
2022/07/20 06:55:14;;;;;;;2.15;0.82;;;24.80;52.40;;;;;;5112797;28;20036;-78
2022/07/20 06:57:40;;;;;;;2.50;1.10;;;24.90;52.50;;;;;;5106339;28;20060;-79
2022/07/20 07:00:07;;;;;;;1.77;1.38;;;24.90;52.50;;;;;;5091575;28;20067;-79
2022/07/20 07:02:33;;;;;;;1.23;1.10;;;24.90;52.50;;;;;;5091829;28;20039;-77
2022/07/20 07:04:59;;;;;;;1.55;1.20;;;24.90;52.50;;;;;;5091285;28;20040;-77
2022/07/20 07:07:24;;;;;;;2.38;1.10;;;24.80;52.40;;;;;;5091745;28;20044;-77
2022/07/20 07:09:50;;;;;;;1.48;1.10;;;24.90;52.50;;;;;;5092178;28;20040;-77
2022/07/20 07:12:16;;;;;;;2.30;1.38;;;24.90;52.50;;;;;;5105237;28;20486;-77
2022/07/20 07:14:41;;;;;;;1.85;1.35;;;24.90;52.50;;;;;;5113192;28;20110;-77
2022/07/20 07:17:07;;;;;;;1.60;1.20;;;24.90;52.50;;;;;;5112641;28;20124;-77
2022/07/20 07:19:33;;;;;;;1.98;1.23;;;24.90;52.60;;;;;;5112460;28;20062;-77
2022/07/20 07:21:59;;;;;;;1.60;1.42;;;24.90;52.60;;;;;;5112391;28;20040;-77
2022/07/20 07:24:28;;;;;;;2.85;1.13;;;24.90;52.60;;;;;;5107912;28;20028;-76
2022/07/20 07:26:53;;;;;;;5.72;2.53;;;24.90;52.70;;;;;;5093546;28;20083;-76
2022/07/20 07:29:22;;;;;;;7.10;5.07;;;24.90;52.70;;;;;;5106662;28;20430;-75
2022/07/20 07:31:50;;;;;;;6.93;4.72;;;24.90;53.10;;;;;;5103567;28;20264;-74
2022/07/20 07:34:18;;;;;;;9.32;4.68;;;25.00;53.30;;;;;;5109991;28;20562;-77
2022/07/20 07:36:45;;;;;;;6.88;5.00;;;25.00;53.30;;;;;;5109142;28;20073;-77
2022/07/20 07:39:10;;;;;;;7.57;5.22;;;25.10;53.50;;;;;;5110519;28;20105;-77
2022/07/20 07:41:36;;;;;;;8.88;5.60;;;25.10;53.60;;;;;;5111940;28;20321;-77
2022/07/20 07:44:02;;;;;;;8.95;5.93;;;25.20;53.90;;;;;;5110900;28;20047;-77
2022/07/20 07:46:31;;;;;;;10.80;6.80;;;25.20;54.10;;;;;;5107369;28;20039;-75
2022/07/20 07:48:57;;;;;;;8.98;8.02;;;25.20;54.50;;;;;;5092547;28;20150;-77
2022/07/20 07:51:25;;;;;;;13.63;8.48;;;25.30;55.00;;;;;;5095595;28;20040;-75
2022/07/20 07:53:51;;;;;;;15.32;10.18;;;25.30;55.30;;;;;;5095820;28;20402;-77
2022/07/20 07:56:16;;;;;;;9.80;8.45;;;25.30;55.80;;;;;;5095591;28;20127;-75
2022/07/20 07:58:45;;;;;;;11.45;10.30;;;25.40;55.80;;;;;;5096698;28;20079;-76
2022/07/20 08:01:10;;;;;;;13.43;11.20;;;25.40;56.10;;;;;;5099040;28;20558;-77
2022/07/20 08:03:36;;;;;;;13.55;12.20;;;25.40;56.40;;;;;;5094962;28;20116;-74
2022/07/20 08:06:04;;;;;;;15.77;10.68;;;25.50;56.90;;;;;;5105034;28;20560;-75
2022/07/20 08:08:33;;;;;;;15.13;11.95;;;25.50;57.00;;;;;;5094424;28;20039;-74
2022/07/20 08:10:59;;;;;;;16.10;13.18;;;25.50;57.30;;;;;;5100561;28;20044;-76
2022/07/20 08:13:25;;;;;;;14.50;12.70;;;25.50;57.50;;;;;;5100224;28;20391;-77
2022/07/20 08:15:51;;;;;;;19.10;12.23;;;25.50;57.70;;;;;;5097282;28;20044;-77
2022/07/20 08:18:19;;;;;;;14.57;13.05;;;25.50;57.90;;;;;;5097088;28;20097;-77
2022/07/20 08:20:45;;;;;;;17.90;14.35;;;25.60;58.10;;;;;;5097984;28;20051;-74
2022/07/20 08:23:12;;;;;;;16.13;13.38;;;25.60;58.20;;;;;;5102183;28;20035;-76
2022/07/20 08:25:37;;;;;;;14.63;12.98;;;25.70;59.10;;;;;;5095463;28;20032;-74
2022/07/20 08:28:13;;;;;;;17.08;14.52;;;25.70;58.40;;;;;;5100269;28;20101;-81
2022/07/20 08:30:41;;;;;;;20.15;14.93;;;25.80;58.70;;;;;;5096684;28;20061;-77
2022/07/20 08:33:08;;;;;;;15.93;13.50;;;25.80;58.70;;;;;;5097505;28;20044;-75
2022/07/20 08:35:34;;;;;;;17.90;14.48;;;25.80;58.60;;;;;;5095301;28;20046;-74
2022/07/20 08:38:00;;;;;;;16.45;14.75;;;25.80;58.70;;;;;;5097894;28;20413;-76
2022/07/20 08:40:27;;;;;;;19.17;15.02;;;25.80;58.80;;;;;;5106368;28;20051;-76
2022/07/20 08:42:53;;;;;;;19.98;15.98;;;25.80;58.90;;;;;;5093108;28;20032;-74
2022/07/20 08:45:18;;;;;;;18.10;15.57;;;25.80;59.00;;;;;;5095566;28;20047;-74
2022/07/20 08:47:45;;;;;;;22.30;16.80;;;25.80;59.00;;;;;;5093555;28;20464;-74
2022/07/20 08:50:12;;;;;;;19.83;16.38;;;25.90;59.20;;;;;;5100278;28;20123;-73
2022/07/20 08:52:38;;;;;;;21.15;17.35;;;25.90;59.20;;;;;;5102539;28;20153;-73
2022/07/20 08:55:10;;;;;;;19.02;15.90;;;25.90;59.30;;;;;;5095079;28;20050;-71
2022/07/20 08:57:36;;;;;;;23.13;17.83;;;26.00;58.90;;;;;;5095809;28;20044;-77
2022/07/20 09:00:04;;;;;;;19.85;16.38;;;26.00;58.60;;;;;;5096164;28;20055;-74
2022/07/20 09:02:46;;;;;;;17.58;15.68;;;26.10;58.50;;;;;;5100534;28;20054;-71
2022/07/20 09:05:12;;;;;;;29.05;16.92;;;26.10;58.20;;;;;;5100980;28;20070;-74
2022/07/20 09:07:41;;;;;;;22.95;18.13;;;26.20;58.10;;;;;;5107117;28;20067;-75
2022/07/20 09:10:13;;;;;;;20.92;17.85;;;26.20;57.70;;;;;;5103509;28;20059;-77
2022/07/20 09:13:03;;;;;;;20.88;18.58;;;26.30;57.30;;;;;;5104547;27;20170;-75
2022/07/20 09:20:55;;;;;;;20.90;17.35;;;26.40;56.60;;;;;;5121792;27;20690;-73
2022/07/20 09:28:47;;;;;;;18.52;16.67;;;26.40;56.20;;;;;;5108992;27;20374;-74
2022/07/20 09:31:19;;;;;;;18.45;16.65;;;26.50;56.00;;;;;;5112051;27;20155;-74
2022/07/20 09:33:50;;;;;;;20.33;17.08;;;26.50;56.00;;;;;;5108800;27;20035;-75
2022/07/20 09:36:17;;;;;;;18.95;17.02;;;26.50;55.80;;;;;;5109879;27;20043;-75
2022/07/20 09:38:43;;;;;;;21.33;18.02;;;26.50;55.70;;;;;;5103366;27;20109;-74
2022/07/20 09:41:30;;;;;;;18.67;16.58;;;26.50;55.50;;;;;;5107913;27;20479;-73
2022/07/20 09:43:58;;;;;;;21.50;17.98;;;26.60;55.20;;;;;;5111085;27;20039;-72
2022/07/20 09:46:28;;;;;;;19.45;17.42;;;26.60;55.90;;;;;;5131480;27;20044;-72
2022/07/20 09:48:56;;;;;;;19.85;17.55;;;26.60;54.90;;;;;;5123355;27;20043;-72
2022/07/20 09:51:27;;;;;;;20.80;18.50;;;26.70;54.80;;;;;;5116631;27;20893;-70
2022/07/20 09:53:58;;;;;;;19.15;17.08;;;26.70;54.60;;;;;;5114573;28;20402;-71
2022/07/20 09:56:25;;;;;;;23.13;17.35;;;26.70;54.50;;;;;;5116028;27;20035;-72
2022/07/20 09:58:53;;;;;;;17.52;15.80;;;26.70;54.60;;;;;;5108912;27;20089;-75
2022/07/20 10:01:23;;;;;;;19.27;16.67;;;26.80;54.30;;;;;;5114496;27;20065;-74
2022/07/20 10:03:50;;;;;;;18.73;15.63;;;26.80;54.20;;;;;;5113460;27;20371;-75
2022/07/20 10:06:17;;;;;;;18.00;16.17;;;26.80;54.00;;;;;;5114513;27;20043;-76
2022/07/20 10:08:44;;;;;;;18.58;16.35;;;26.90;54.00;;;;;;5109437;27;20047;-75
2022/07/20 10:11:10;;;;;;;19.27;16.25;;;26.90;54.00;;;;;;5114442;27;20036;-73
2022/07/20 10:13:36;;;;;;;17.20;14.75;;;26.90;54.10;;;;;;5107282;27;20517;-72
2022/07/20 10:16:14;;;;;;;16.58;14.88;;;27.00;54.30;;;;;;5106814;28;20043;-74
2022/07/20 10:18:42;;;;;;;19.25;15.13;;;27.00;54.00;;;;;;5107956;28;20476;-70
2022/07/20 10:21:45;;;;;;;15.73;14.13;;;27.00;54.10;;;;;;5115031;28;20031;-72
2022/07/20 10:24:32;;;;;;;20.15;14.60;;;27.00;53.80;;;;;;5121027;27;20479;-71
2022/07/20 10:29:56;;;;;;;15.82;14.23;;;27.00;53.50;;;;;;5109274;27;20097;-72
2022/07/20 10:32:25;;;;;;;15.20;13.80;;;27.00;54.00;;;;;;5107104;28;20127;-72
2022/07/20 10:34:54;;;;;;;15.07;12.38;;;27.00;53.70;;;;;;5107892;28;20040;-71
2022/07/20 10:42:46;;;;;;;16.48;11.90;;;27.00;53.40;;;;;;5139054;27;1172517;-78
2022/07/20 10:47:58;;;;;;;13.60;11.18;;;27.10;53.60;;;;;;5088951;27;20413;-78
2022/07/20 10:50:35;;;;;;;16.30;11.35;;;27.10;53.30;;;;;;5084533;28;20075;-78
2022/07/20 10:55:58;;;;;;;15.25;11.18;;;27.00;53.20;;;;;;5108935;27;20404;-75
2022/07/20 11:01:07;;;;;;;11.73;10.35;;;27.10;53.60;;;;;;5129162;27;20813;-84
2022/07/20 11:08:56;;;;;;;13.13;10.02;;;27.10;52.90;;;;;;5109220;27;20453;-82
2022/07/20 11:11:25;;;;;;;14.43;10.73;;;27.10;53.20;;;;;;5090271;28;20040;-77
2022/07/20 11:13:51;;;;;;;13.70;8.88;;;27.10;53.30;;;;;;5090336;28;20050;-76
2022/07/20 11:16:19;;;;;;;10.18;9.02;;;27.10;53.00;;;;;;5090901;28;20039;-76
2022/07/20 11:18:44;;;;;;;13.30;9.48;;;27.20;52.50;;;;;;5090813;28;20096;-79
2022/07/20 11:21:12;;;;;;;9.93;8.35;;;27.20;52.30;;;;;;5109129;28;20031;-81
2022/07/20 11:23:42;;;;;;;11.57;8.40;;;27.20;52.30;;;;;;5099347;28;20061;-80
2022/07/20 11:26:08;;;;;;;9.80;8.48;;;27.20;52.40;;;;;;5090586;28;20546;-81
2022/07/20 11:28:38;;;;;;;13.65;8.02;;;27.20;52.50;;;;;;5108339;28;20043;-77
2022/07/20 11:31:07;;;;;;;12.52;8.48;;;27.20;52.50;;;;;;5107702;28;20068;-78
2022/07/20 11:33:36;;;;;;;10.98;8.95;;;27.20;52.60;;;;;;5108406;28;20035;-75
2022/07/20 11:36:05;;;;;;;12.13;9.00;;;27.20;52.90;;;;;;5090442;28;20430;-76
2022/07/20 11:38:38;;;;;;;10.57;7.93;;;27.20;52.90;;;;;;5109062;28;20043;-73
2022/07/20 11:41:09;;;;;;;9.20;7.97;;;27.20;53.00;;;;;;5091139;28;20075;-72
2022/07/20 11:43:36;;;;;;;11.27;8.68;;;27.20;53.10;;;;;;5089388;28;20047;-75
2022/07/20 11:51:35;;;;;;;10.23;7.90;;;27.30;53.70;;;;;;5088370;27;20359;-72
2022/07/20 11:54:02;;;;;;;24.08;8.60;;;27.30;53.60;;;;;;5088075;28;20055;-72
2022/07/20 11:56:29;;;;;;;14.13;7.57;;;27.20;53.60;;;;;;5084933;28;20082;-72
2022/07/20 11:58:57;;;;;;;17.83;9.15;;;27.20;53.50;;;;;;5081473;28;20028;-71
2022/07/20 12:06:43;;;;;;;12.50;7.97;;;27.30;53.90;;;;;;5128660;27;20440;-78
2022/07/20 12:14:41;;;;;;;11.13;7.97;;;27.30;54.40;;;;;;5148682;27;1173784;-78
2022/07/20 12:17:15;;;;;;;17.10;8.55;;;27.30;54.60;;;;;;5150647;27;20478;-76
2022/07/20 12:19:45;;;;;;;11.30;7.60;;;27.30;54.80;;;;;;5150212;27;20041;-74
2022/07/20 12:22:19;;;;;;;;;;;27.20;54.70;;;;;;5148906;27;20045;-73
2022/07/20 12:25:06;;;;;;;14.82;7.07;;;27.30;54.30;;;;;;5150034;27;20302;-75
2022/07/20 12:27:35;;;;;;;10.07;7.22;;;27.20;55.30;;;;;;5147474;27;20046;-70
2022/07/20 12:30:24;;;;;;;15.20;8.45;;;27.20;54.50;;;;;;5148772;27;20141;-69
2022/07/20 12:33:11;;;;;;;13.18;7.20;;;27.20;54.10;;;;;;5146706;27;20087;-70
2022/07/20 12:35:40;;;;;;;9.93;7.47;;;27.20;54.10;;;;;;5169395;27;20031;-70
2022/07/20 12:38:06;;;;;;;14.60;8.35;;;27.20;54.10;;;;;;5150812;27;20038;-68
2022/07/20 12:40:44;;;;;;;11.73;7.40;;;27.20;54.10;;;;;;5170360;27;20163;-70
2022/07/20 12:43:31;;;;;;;13.70;7.60;;;27.10;53.90;;;;;;5152220;27;20050;-70
2022/07/20 12:46:01;;;;;;;14.88;7.75;;;27.10;54.00;;;;;;5152091;27;20042;-71
2022/07/20 12:48:27;;;;;;;;;;;27.00;54.10;;;;;;5152789;27;20493;-71
2022/07/20 12:50:53;;;;;;;11.48;7.60;;;27.00;54.10;;;;;;5152400;27;19927;-71
2022/07/20 12:53:18;;;;;;;16.45;7.05;;;26.90;54.20;;;;;;5152212;27;20046;-71
2022/07/20 12:55:47;;;;;;;10.30;6.95;;;26.90;54.20;;;;;;5152322;27;20143;-70
2022/07/20 12:58:13;;;;;;;11.65;7.28;;;26.90;54.20;;;;;;5151998;27;20048;-70
2022/07/20 13:00:38;;;;;;;9.25;7.22;;;26.80;54.20;;;;;;5152373;27;20038;-71
2022/07/20 13:03:04;;;;;;;10.23;7.50;;;26.80;54.30;;;;;;5152522;27;20193;-71
2022/07/20 13:05:30;;;;;;;9.02;7.25;;;26.80;54.30;;;;;;5151574;27;20478;-70
2022/07/20 13:07:56;;;;;;;8.15;7.35;;;26.80;54.30;;;;;;5152094;27;20038;-70
2022/07/20 13:10:21;;;;;;;7.72;6.97;;;26.80;54.40;;;;;;5152131;27;20042;-70
2022/07/20 13:12:47;;;;;;;7.88;6.18;;;26.70;54.30;;;;;;5170550;27;20142;-70
2022/07/20 13:15:13;;;;;;;9.80;6.30;;;26.70;54.30;;;;;;5151906;27;20046;-71
2022/07/20 13:17:38;;;;;;;8.48;7.15;;;26.70;54.40;;;;;;5152252;27;20043;-70
2022/07/20 13:20:06;;;;;;;7.70;6.47;;;26.70;54.40;;;;;;5144656;27;20519;-70
2022/07/20 13:22:32;;;;;;;7.75;7.03;;;26.70;54.50;;;;;;5138132;27;20081;-70
2022/07/20 13:24:57;;;;;;;8.70;6.97;;;26.70;54.40;;;;;;5143380;27;20106;-70
2022/07/20 13:27:23;;;;;;;11.77;7.18;;;26.70;54.50;;;;;;5138256;27;20045;-70
2022/07/20 13:29:49;;;;;;;10.07;7.05;;;26.70;54.50;;;;;;5156361;27;20045;-70
2022/07/20 13:32:14;;;;;;;9.63;6.75;;;26.70;54.50;;;;;;5137735;27;20034;-71